sensor_id;sensor_type;location;lat;lon;timestamp;P1;durP1;ratioP1;P2;durP2;ratioP2
2638;SDS011;1329;51.384;7.122;2023-11-21T00:00:14;11.23;;;9.10;;
2638;SDS011;1329;51.384;7.122;2023-11-21T00:02:43;10.27;;;8.67;;
2638;SDS011;1329;51.384;7.122;2023-11-21T00:05:11;13.50;;;9.50;;
2638;SDS011;1329;51.384;7.122;2023-11-21T00:07:43;11.83;;;10.27;;
2638;SDS011;1329;51.384;7.122;2023-11-21T00:10:10;11.70;;;10.43;;
2638;SDS011;1329;51.384;7.122;2023-11-21T00:12:41;11.47;;;9.30;;
2638;SDS011;1329;51.384;7.122;2023-11-21T00:15:09;12.70;;;8.83;;
2638;SDS011;1329;51.384;7.122;2023-11-21T00:17:37;9.57;;;7.93;;
2638;SDS011;1329;51.384;7.122;2023-11-21T00:20:05;9.63;;;8.27;;
2638;SDS011;1329;51.384;7.122;2023-11-21T00:22:37;9.10;;;8.00;;
2638;SDS011;1329;51.384;7.122;2023-11-21T00:25:07;11.83;;;9.33;;
2638;SDS011;1329;51.384;7.122;2023-11-21T00:27:36;12.60;;;8.87;;
2638;SDS011;1329;51.384;7.122;2023-11-21T00:30:05;10.33;;;8.63;;
2638;SDS011;1329;51.384;7.122;2023-11-21T00:32:34;10.90;;;8.47;;
2638;SDS011;1329;51.384;7.122;2023-11-21T00:35:03;12.43;;;9.30;;
2638;SDS011;1329;51.384;7.122;2023-11-21T00:37:32;11.40;;;8.97;;
2638;SDS011;1329;51.384;7.122;2023-11-21T00:40:00;13.47;;;9.13;;
2638;SDS011;1329;51.384;7.122;2023-11-21T00:42:32;11.27;;;9.07;;
2638;SDS011;1329;51.384;7.122;2023-11-21T00:44:59;11.23;;;9.30;;
2638;SDS011;1329;51.384;7.122;2023-11-21T00:47:28;10.83;;;9.60;;
2638;SDS011;1329;51.384;7.122;2023-11-21T00:49:56;11.37;;;9.13;;
2638;SDS011;1329;51.384;7.122;2023-11-21T00:52:23;11.50;;;9.07;;
2638;SDS011;1329;51.384;7.122;2023-11-21T00:54:51;11.43;;;9.57;;
2638;SDS011;1329;51.384;7.122;2023-11-21T00:57:18;10.73;;;9.47;;
2638;SDS011;1329;51.384;7.122;2023-11-21T00:59:48;10.70;;;9.60;;
2638;SDS011;1329;51.384;7.122;2023-11-21T01:02:15;10.60;;;9.50;;
2638;SDS011;1329;51.384;7.122;2023-11-21T01:04:43;13.10;;;9.63;;
2638;SDS011;1329;51.384;7.122;2023-11-21T01:07:12;9.97;;;8.97;;
2638;SDS011;1329;51.384;7.122;2023-11-21T01:09:40;10.13;;;8.77;;
2638;SDS011;1329;51.384;7.122;2023-11-21T01:12:09;10.43;;;8.57;;
2638;SDS011;1329;51.384;7.122;2023-11-21T01:14:37;10.83;;;8.80;;
2638;SDS011;1329;51.384;7.122;2023-11-21T01:17:06;10.20;;;8.67;;
2638;SDS011;1329;51.384;7.122;2023-11-21T01:19:34;11.17;;;8.80;;
2638;SDS011;1329;51.384;7.122;2023-11-21T01:22:02;9.37;;;8.47;;
2638;SDS011;1329;51.384;7.122;2023-11-21T01:24:33;9.97;;;8.97;;
2638;SDS011;1329;51.384;7.122;2023-11-21T01:27:01;9.50;;;8.50;;
2638;SDS011;1329;51.384;7.122;2023-11-21T01:29:30;10.50;;;8.57;;
2638;SDS011;1329;51.384;7.122;2023-11-21T01:31:58;9.77;;;8.77;;
2638;SDS011;1329;51.384;7.122;2023-11-21T01:34:27;10.37;;;8.80;;
2638;SDS011;1329;51.384;7.122;2023-11-21T01:36:56;11.43;;;8.33;;
2638;SDS011;1329;51.384;7.122;2023-11-21T01:39:24;10.53;;;9.17;;
2638;SDS011;1329;51.384;7.122;2023-11-21T01:41:53;10.63;;;9.20;;
2638;SDS011;1329;51.384;7.122;2023-11-21T01:44:20;10.80;;;9.07;;
2638;SDS011;1329;51.384;7.122;2023-11-21T01:46:49;12.50;;;9.23;;
2638;SDS011;1329;51.384;7.122;2023-11-21T01:49:18;12.50;;;8.87;;
2638;SDS011;1329;51.384;7.122;2023-11-21T01:51:48;10.60;;;9.33;;
2638;SDS011;1329;51.384;7.122;2023-11-21T01:54:17;9.90;;;8.93;;
2638;SDS011;1329;51.384;7.122;2023-11-21T01:56:47;11.37;;;9.53;;
2638;SDS011;1329;51.384;7.122;2023-11-21T01:59:17;11.83;;;9.30;;
2638;SDS011;1329;51.384;7.122;2023-11-21T02:01:47;10.63;;;8.93;;
2638;SDS011;1329;51.384;7.122;2023-11-21T02:04:17;11.13;;;9.20;;
2638;SDS011;1329;51.384;7.122;2023-11-21T02:06:48;9.90;;;8.90;;
2638;SDS011;1329;51.384;7.122;2023-11-21T02:09:16;11.40;;;9.90;;
2638;SDS011;1329;51.384;7.122;2023-11-21T02:11:51;9.87;;;8.67;;
2638;SDS011;1329;51.384;7.122;2023-11-21T02:14:19;10.40;;;9.30;;
2638;SDS011;1329;51.384;7.122;2023-11-21T02:16:48;12.23;;;9.33;;
2638;SDS011;1329;51.384;7.122;2023-11-21T02:19:18;12.80;;;9.13;;
2638;SDS011;1329;51.384;7.122;2023-11-21T02:21:50;10.80;;;8.83;;
2638;SDS011;1329;51.384;7.122;2023-11-21T02:24:21;11.27;;;8.63;;
2638;SDS011;1329;51.384;7.122;2023-11-21T02:26:50;10.70;;;9.37;;
2638;SDS011;1329;51.384;7.122;2023-11-21T02:29:18;11.87;;;8.93;;
2638;SDS011;1329;51.384;7.122;2023-11-21T02:31:47;9.83;;;8.83;;
2638;SDS011;1329;51.384;7.122;2023-11-21T02:34:17;9.97;;;8.87;;
2638;SDS011;1329;51.384;7.122;2023-11-21T02:36:45;10.33;;;9.17;;
2638;SDS011;1329;51.384;7.122;2023-11-21T02:39:14;11.63;;;9.47;;
2638;SDS011;1329;51.384;7.122;2023-11-21T02:41:45;10.57;;;8.97;;
2638;SDS011;1329;51.384;7.122;2023-11-21T02:44:13;9.97;;;8.67;;
2638;SDS011;1329;51.384;7.122;2023-11-21T02:46:41;10.40;;;8.93;;
2638;SDS011;1329;51.384;7.122;2023-11-21T02:49:08;10.07;;;8.57;;
2638;SDS011;1329;51.384;7.122;2023-11-21T02:51:37;12.10;;;9.17;;
2638;SDS011;1329;51.384;7.122;2023-11-21T02:54:05;10.87;;;9.20;;
2638;SDS011;1329;51.384;7.122;2023-11-21T02:56:33;9.83;;;8.83;;
2638;SDS011;1329;51.384;7.122;2023-11-21T02:59:02;10.87;;;9.60;;
2638;SDS011;1329;51.384;7.122;2023-11-21T03:01:30;10.23;;;9.23;;
2638;SDS011;1329;51.384;7.122;2023-11-21T03:03:58;10.47;;;9.17;;
2638;SDS011;1329;51.384;7.122;2023-11-21T03:06:25;11.77;;;9.77;;
2638;SDS011;1329;51.384;7.122;2023-11-21T03:08:53;12.70;;;9.63;;
2638;SDS011;1329;51.384;7.122;2023-11-21T03:11:21;11.83;;;9.63;;
2638;SDS011;1329;51.384;7.122;2023-11-21T03:13:48;12.67;;;9.50;;
2638;SDS011;1329;51.384;7.122;2023-11-21T03:16:18;11.70;;;9.47;;
2638;SDS011;1329;51.384;7.122;2023-11-21T03:18:45;10.77;;;8.83;;
2638;SDS011;1329;51.384;7.122;2023-11-21T03:21:13;10.07;;;9.03;;
2638;SDS011;1329;51.384;7.122;2023-11-21T03:23:41;9.57;;;8.53;;
2638;SDS011;1329;51.384;7.122;2023-11-21T03:26:11;11.33;;;9.77;;
2638;SDS011;1329;51.384;7.122;2023-11-21T03:28:39;9.40;;;8.40;;
2638;SDS011;1329;51.384;7.122;2023-11-21T03:31:07;10.97;;;8.37;;
2638;SDS011;1329;51.384;7.122;2023-11-21T03:33:37;10.33;;;9.23;;
2638;SDS011;1329;51.384;7.122;2023-11-21T03:36:06;10.73;;;8.17;;
2638;SDS011;1329;51.384;7.122;2023-11-21T03:38:34;11.00;;;8.97;;
2638;SDS011;1329;51.384;7.122;2023-11-21T03:41:03;10.30;;;9.07;;
2638;SDS011;1329;51.384;7.122;2023-11-21T03:43:31;10.33;;;8.27;;
2638;SDS011;1329;51.384;7.122;2023-11-21T03:46:01;11.60;;;9.10;;
2638;SDS011;1329;51.384;7.122;2023-11-21T03:48:29;11.83;;;9.40;;
2638;SDS011;1329;51.384;7.122;2023-11-21T03:50:59;10.37;;;8.37;;
2638;SDS011;1329;51.384;7.122;2023-11-21T03:53:28;10.70;;;8.97;;
2638;SDS011;1329;51.384;7.122;2023-11-21T03:55:55;10.00;;;8.53;;
2638;SDS011;1329;51.384;7.122;2023-11-21T03:58:24;12.17;;;9.23;;
2638;SDS011;1329;51.384;7.122;2023-11-21T04:00:52;10.03;;;8.73;;
2638;SDS011;1329;51.384;7.122;2023-11-21T04:03:20;11.87;;;9.07;;
2638;SDS011;1329;51.384;7.122;2023-11-21T04:05:47;11.57;;;8.47;;
2638;SDS011;1329;51.384;7.122;2023-11-21T04:08:17;10.73;;;8.83;;
2638;SDS011;1329;51.384;7.122;2023-11-21T04:10:45;10.50;;;8.57;;
2638;SDS011;1329;51.384;7.122;2023-11-21T04:13:12;11.10;;;9.00;;
2638;SDS011;1329;51.384;7.122;2023-11-21T04:15:40;12.00;;;8.83;;
2638;SDS011;1329;51.384;7.122;2023-11-21T04:18:09;13.00;;;9.00;;
2638;SDS011;1329;51.384;7.122;2023-11-21T04:20:37;10.63;;;8.57;;
2638;SDS011;1329;51.384;7.122;2023-11-21T04:23:05;9.27;;;8.27;;
2638;SDS011;1329;51.384;7.122;2023-11-21T04:25:36;8.77;;;7.87;;
2638;SDS011;1329;51.384;7.122;2023-11-21T04:28:04;9.37;;;8.40;;
2638;SDS011;1329;51.384;7.122;2023-11-21T04:30:32;11.83;;;8.93;;
2638;SDS011;1329;51.384;7.122;2023-11-21T04:33:00;13.37;;;8.87;;
2638;SDS011;1329;51.384;7.122;2023-11-21T04:35:28;11.43;;;8.63;;
2638;SDS011;1329;51.384;7.122;2023-11-21T04:37:56;11.50;;;8.70;;
2638;SDS011;1329;51.384;7.122;2023-11-21T04:40:23;10.40;;;8.63;;
2638;SDS011;1329;51.384;7.122;2023-11-21T04:42:53;10.50;;;8.70;;
2638;SDS011;1329;51.384;7.122;2023-11-21T04:45:22;12.53;;;8.63;;
2638;SDS011;1329;51.384;7.122;2023-11-21T04:47:50;12.50;;;8.63;;
2638;SDS011;1329;51.384;7.122;2023-11-21T04:50:18;12.53;;;9.47;;
2638;SDS011;1329;51.384;7.122;2023-11-21T04:52:45;12.03;;;9.40;;
2638;SDS011;1329;51.384;7.122;2023-11-21T04:55:13;13.30;;;10.07;;
2638;SDS011;1329;51.384;7.122;2023-11-21T04:57:41;13.53;;;9.77;;
2638;SDS011;1329;51.384;7.122;2023-11-21T05:00:11;12.03;;;9.23;;
2638;SDS011;1329;51.384;7.122;2023-11-21T05:02:41;14.93;;;9.87;;
2638;SDS011;1329;51.384;7.122;2023-11-21T05:05:09;11.53;;;9.27;;
2638;SDS011;1329;51.384;7.122;2023-11-21T05:07:38;13.00;;;9.57;;
2638;SDS011;1329;51.384;7.122;2023-11-21T05:10:06;15.73;;;10.53;;
2638;SDS011;1329;51.384;7.122;2023-11-21T05:12:37;13.57;;;10.13;;
2638;SDS011;1329;51.384;7.122;2023-11-21T05:15:06;14.37;;;10.43;;
2638;SDS011;1329;51.384;7.122;2023-11-21T05:17:37;13.13;;;10.30;;
2638;SDS011;1329;51.384;7.122;2023-11-21T05:20:07;14.00;;;10.20;;
2638;SDS011;1329;51.384;7.122;2023-11-21T05:22:36;12.10;;;9.90;;
2638;SDS011;1329;51.384;7.122;2023-11-21T05:25:05;13.03;;;9.70;;
2638;SDS011;1329;51.384;7.122;2023-11-21T05:27:34;14.53;;;10.50;;
2638;SDS011;1329;51.384;7.122;2023-11-21T05:30:02;13.73;;;9.87;;
2638;SDS011;1329;51.384;7.122;2023-11-21T05:32:34;13.77;;;10.10;;
2638;SDS011;1329;51.384;7.122;2023-11-21T05:35:04;13.50;;;9.67;;
2638;SDS011;1329;51.384;7.122;2023-11-21T05:37:35;13.53;;;10.10;;
2638;SDS011;1329;51.384;7.122;2023-11-21T05:40:04;15.43;;;10.53;;
2638;SDS011;1329;51.384;7.122;2023-11-21T05:42:34;12.63;;;9.97;;
2638;SDS011;1329;51.384;7.122;2023-11-21T05:45:03;13.33;;;9.70;;
2638;SDS011;1329;51.384;7.122;2023-11-21T05:47:36;13.67;;;10.27;;
2638;SDS011;1329;51.384;7.122;2023-11-21T05:50:08;16.13;;;10.33;;
2638;SDS011;1329;51.384;7.122;2023-11-21T05:52:37;12.70;;;9.50;;
2638;SDS011;1329;51.384;7.122;2023-11-21T05:55:05;13.77;;;10.33;;
2638;SDS011;1329;51.384;7.122;2023-11-21T05:57:34;14.33;;;10.70;;
2638;SDS011;1329;51.384;7.122;2023-11-21T06:00:03;15.13;;;10.63;;
2638;SDS011;1329;51.384;7.122;2023-11-21T06:02:36;13.70;;;10.00;;
2638;SDS011;1329;51.384;7.122;2023-11-21T06:05:04;13.43;;;9.63;;
2638;SDS011;1329;51.384;7.122;2023-11-21T06:07:34;14.10;;;9.97;;
2638;SDS011;1329;51.384;7.122;2023-11-21T06:10:03;13.97;;;10.10;;
2638;SDS011;1329;51.384;7.122;2023-11-21T06:12:34;13.93;;;9.50;;
2638;SDS011;1329;51.384;7.122;2023-11-21T06:15:02;13.10;;;9.80;;
2638;SDS011;1329;51.384;7.122;2023-11-21T06:17:32;13.70;;;9.93;;
2638;SDS011;1329;51.384;7.122;2023-11-21T06:20:01;14.97;;;10.13;;
2638;SDS011;1329;51.384;7.122;2023-11-21T06:22:35;14.70;;;10.30;;
2638;SDS011;1329;51.384;7.122;2023-11-21T06:25:04;12.97;;;10.10;;
2638;SDS011;1329;51.384;7.122;2023-11-21T06:27:33;14.67;;;9.63;;
2638;SDS011;1329;51.384;7.122;2023-11-21T06:30:01;13.37;;;10.03;;
2638;SDS011;1329;51.384;7.122;2023-11-21T06:32:29;15.07;;;10.07;;
2638;SDS011;1329;51.384;7.122;2023-11-21T06:34:57;14.07;;;9.90;;
2638;SDS011;1329;51.384;7.122;2023-11-21T06:37:29;11.80;;;8.83;;
2638;SDS011;1329;51.384;7.122;2023-11-21T06:39:59;13.33;;;9.50;;
2638;SDS011;1329;51.384;7.122;2023-11-21T06:42:29;12.47;;;9.30;;
2638;SDS011;1329;51.384;7.122;2023-11-21T06:44:56;12.63;;;10.10;;
2638;SDS011;1329;51.384;7.122;2023-11-21T06:47:24;11.90;;;9.40;;
2638;SDS011;1329;51.384;7.122;2023-11-21T06:49:53;14.03;;;9.87;;
2638;SDS011;1329;51.384;7.122;2023-11-21T06:52:20;12.10;;;9.93;;
2638;SDS011;1329;51.384;7.122;2023-11-21T06:54:47;13.27;;;9.63;;
2638;SDS011;1329;51.384;7.122;2023-11-21T06:57:17;13.37;;;9.93;;
2638;SDS011;1329;51.384;7.122;2023-11-21T06:59:45;12.30;;;9.47;;
2638;SDS011;1329;51.384;7.122;2023-11-21T07:02:12;14.63;;;10.57;;
2638;SDS011;1329;51.384;7.122;2023-11-21T07:04:40;12.83;;;10.17;;
2638;SDS011;1329;51.384;7.122;2023-11-21T07:07:07;11.43;;;9.17;;
2638;SDS011;1329;51.384;7.122;2023-11-21T07:09:34;13.33;;;10.07;;
2638;SDS011;1329;51.384;7.122;2023-11-21T07:12:02;13.10;;;9.83;;
2638;SDS011;1329;51.384;7.122;2023-11-21T07:14:34;13.87;;;10.13;;
2638;SDS011;1329;51.384;7.122;2023-11-21T07:17:02;13.43;;;10.17;;
2638;SDS011;1329;51.384;7.122;2023-11-21T07:19:37;11.33;;;9.63;;
2638;SDS011;1329;51.384;7.122;2023-11-21T07:22:06;12.97;;;10.23;;
2638;SDS011;1329;51.384;7.122;2023-11-21T07:24:34;13.80;;;11.07;;
2638;SDS011;1329;51.384;7.122;2023-11-21T07:27:12;17.33;;;10.73;;
2638;SDS011;1329;51.384;7.122;2023-11-21T07:29:41;19.50;;;12.27;;
2638;SDS011;1329;51.384;7.122;2023-11-21T07:32:09;13.63;;;9.77;;
2638;SDS011;1329;51.384;7.122;2023-11-21T07:34:38;14.27;;;10.40;;
2638;SDS011;1329;51.384;7.122;2023-11-21T07:37:06;15.50;;;11.20;;
2638;SDS011;1329;51.384;7.122;2023-11-21T07:39:34;14.13;;;10.73;;
2638;SDS011;1329;51.384;7.122;2023-11-21T07:42:02;13.20;;;10.03;;
2638;SDS011;1329;51.384;7.122;2023-11-21T07:44:30;12.67;;;9.67;;
2638;SDS011;1329;51.384;7.122;2023-11-21T07:46:59;13.13;;;9.97;;
2638;SDS011;1329;51.384;7.122;2023-11-21T07:49:26;15.43;;;10.80;;
2638;SDS011;1329;51.384;7.122;2023-11-21T07:51:54;14.20;;;11.27;;
2638;SDS011;1329;51.384;7.122;2023-11-21T07:54:21;13.67;;;10.87;;
2638;SDS011;1329;51.384;7.122;2023-11-21T07:56:49;17.47;;;11.53;;
2638;SDS011;1329;51.384;7.122;2023-11-21T07:59:16;16.60;;;12.63;;
2638;SDS011;1329;51.384;7.122;2023-11-21T08:01:44;17.40;;;13.53;;
2638;SDS011;1329;51.384;7.122;2023-11-21T08:04:13;18.43;;;13.63;;
2638;SDS011;1329;51.384;7.122;2023-11-21T08:06:41;18.73;;;14.30;;
2638;SDS011;1329;51.384;7.122;2023-11-21T08:09:08;16.57;;;13.20;;
2638;SDS011;1329;51.384;7.122;2023-11-21T08:11:40;18.60;;;13.27;;
2638;SDS011;1329;51.384;7.122;2023-11-21T08:14:08;19.97;;;13.77;;
2638;SDS011;1329;51.384;7.122;2023-11-21T08:16:35;20.23;;;13.80;;
2638;SDS011;1329;51.384;7.122;2023-11-21T08:19:03;17.37;;;13.03;;
2638;SDS011;1329;51.384;7.122;2023-11-21T08:21:32;20.33;;;13.73;;
2638;SDS011;1329;51.384;7.122;2023-11-21T08:24:02;16.60;;;12.80;;
2638;SDS011;1329;51.384;7.122;2023-11-21T08:26:30;15.73;;;12.20;;
2638;SDS011;1329;51.384;7.122;2023-11-21T08:28:59;14.87;;;11.47;;
2638;SDS011;1329;51.384;7.122;2023-11-21T08:31:27;17.10;;;11.33;;
2638;SDS011;1329;51.384;7.122;2023-11-21T08:33:54;13.60;;;10.90;;
2638;SDS011;1329;51.384;7.122;2023-11-21T08:36:22;16.87;;;11.90;;
2638;SDS011;1329;51.384;7.122;2023-11-21T08:38:51;17.23;;;12.10;;
2638;SDS011;1329;51.384;7.122;2023-11-21T08:41:19;13.47;;;10.80;;
2638;SDS011;1329;51.384;7.122;2023-11-21T08:43:47;15.03;;;11.50;;
2638;SDS011;1329;51.384;7.122;2023-11-21T08:46:16;16.73;;;11.67;;
2638;SDS011;1329;51.384;7.122;2023-11-21T08:48:44;20.70;;;14.03;;
2638;SDS011;1329;51.384;7.122;2023-11-21T08:51:12;27.30;;;16.27;;
2638;SDS011;1329;51.384;7.122;2023-11-21T08:53:41;34.07;;;19.47;;
2638;SDS011;1329;51.384;7.122;2023-11-21T08:56:13;33.77;;;19.23;;
2638;SDS011;1329;51.384;7.122;2023-11-21T08:58:41;39.47;;;20.50;;
2638;SDS011;1329;51.384;7.122;2023-11-21T09:01:08;37.70;;;20.73;;
2638;SDS011;1329;51.384;7.122;2023-11-21T09:03:37;38.13;;;20.50;;
2638;SDS011;1329;51.384;7.122;2023-11-21T09:06:05;44.40;;;21.30;;
2638;SDS011;1329;51.384;7.122;2023-11-21T09:08:34;36.83;;;21.10;;
2638;SDS011;1329;51.384;7.122;2023-11-21T09:11:03;51.43;;;22.27;;
2638;SDS011;1329;51.384;7.122;2023-11-21T09:13:32;44.13;;;22.87;;
2638;SDS011;1329;51.384;7.122;2023-11-21T09:16:00;41.23;;;21.67;;
2638;SDS011;1329;51.384;7.122;2023-11-21T09:18:27;40.80;;;22.43;;
2638;SDS011;1329;51.384;7.122;2023-11-21T09:20:56;40.30;;;20.93;;
2638;SDS011;1329;51.384;7.122;2023-11-21T09:23:23;42.00;;;22.17;;
2638;SDS011;1329;51.384;7.122;2023-11-21T09:25:51;43.70;;;22.60;;
2638;SDS011;1329;51.384;7.122;2023-11-21T09:28:22;41.83;;;21.70;;
2638;SDS011;1329;51.384;7.122;2023-11-21T09:30:51;46.17;;;22.40;;
2638;SDS011;1329;51.384;7.122;2023-11-21T09:33:18;43.17;;;22.83;;
2638;SDS011;1329;51.384;7.122;2023-11-21T09:35:47;42.23;;;23.57;;
2638;SDS011;1329;51.384;7.122;2023-11-21T09:38:16;47.93;;;23.50;;
2638;SDS011;1329;51.384;7.122;2023-11-21T09:40:44;42.87;;;23.83;;
2638;SDS011;1329;51.384;7.122;2023-11-21T09:43:14;44.20;;;24.93;;
2638;SDS011;1329;51.384;7.122;2023-11-21T09:45:45;44.40;;;25.20;;
2638;SDS011;1329;51.384;7.122;2023-11-21T09:48:17;44.73;;;24.23;;
2638;SDS011;1329;51.384;7.122;2023-11-21T09:50:48;40.70;;;22.87;;
2638;SDS011;1329;51.384;7.122;2023-11-21T09:53:18;42.70;;;23.37;;
2638;SDS011;1329;51.384;7.122;2023-11-21T09:55:49;44.37;;;22.60;;
2638;SDS011;1329;51.384;7.122;2023-11-21T09:58:19;41.73;;;22.53;;
2638;SDS011;1329;51.384;7.122;2023-11-21T10:00:52;44.60;;;23.90;;
2638;SDS011;1329;51.384;7.122;2023-11-21T10:03:23;45.13;;;23.70;;
2638;SDS011;1329;51.384;7.122;2023-11-21T10:05:52;43.37;;;23.70;;
2638;SDS011;1329;51.384;7.122;2023-11-21T10:08:24;44.47;;;22.70;;
2638;SDS011;1329;51.384;7.122;2023-11-21T10:10:53;43.77;;;24.20;;
2638;SDS011;1329;51.384;7.122;2023-11-21T10:13:24;42.30;;;22.87;;
2638;SDS011;1329;51.384;7.122;2023-11-21T10:15:56;44.67;;;23.17;;
2638;SDS011;1329;51.384;7.122;2023-11-21T10:18:27;41.97;;;23.77;;
2638;SDS011;1329;51.384;7.122;2023-11-21T10:20:54;40.30;;;22.97;;
2638;SDS011;1329;51.384;7.122;2023-11-21T10:23:23;43.30;;;23.33;;
2638;SDS011;1329;51.384;7.122;2023-11-21T10:25:51;38.93;;;21.97;;
2638;SDS011;1329;51.384;7.122;2023-11-21T10:28:20;42.40;;;23.03;;
2638;SDS011;1329;51.384;7.122;2023-11-21T10:30:48;46.90;;;24.73;;
2638;SDS011;1329;51.384;7.122;2023-11-21T10:33:20;42.73;;;22.80;;
2638;SDS011;1329;51.384;7.122;2023-11-21T10:35:55;46.83;;;23.73;;
2638;SDS011;1329;51.384;7.122;2023-11-21T10:38:26;42.20;;;22.63;;
2638;SDS011;1329;51.384;7.122;2023-11-21T10:40:57;41.67;;;24.53;;
2638;SDS011;1329;51.384;7.122;2023-11-21T10:43:25;44.50;;;23.73;;
2638;SDS011;1329;51.384;7.122;2023-11-21T10:45:51;43.77;;;24.17;;
2638;SDS011;1329;51.384;7.122;2023-11-21T10:48:20;45.00;;;22.87;;
2638;SDS011;1329;51.384;7.122;2023-11-21T10:50:48;47.23;;;23.60;;
2638;SDS011;1329;51.384;7.122;2023-11-21T10:53:15;48.87;;;24.97;;
2638;SDS011;1329;51.384;7.122;2023-11-21T10:55:44;47.57;;;24.53;;
2638;SDS011;1329;51.384;7.122;2023-11-21T10:58:13;42.97;;;23.60;;
2638;SDS011;1329;51.384;7.122;2023-11-21T11:00:41;45.10;;;23.80;;
2638;SDS011;1329;51.384;7.122;2023-11-21T11:03:11;45.72;;;24.60;;
2638;SDS011;1329;51.384;7.122;2023-11-21T11:05:39;49.40;;;23.60;;
2638;SDS011;1329;51.384;7.122;2023-11-21T11:08:17;44.40;;;24.73;;
2638;SDS011;1329;51.384;7.122;2023-11-21T11:10:51;44.53;;;23.40;;
2638;SDS011;1329;51.384;7.122;2023-11-21T11:13:19;47.70;;;23.65;;
2638;SDS011;1329;51.384;7.122;2023-11-21T11:15:48;42.10;;;23.48;;
2638;SDS011;1329;51.384;7.122;2023-11-21T11:18:16;44.47;;;23.63;;
2638;SDS011;1329;51.384;7.122;2023-11-21T11:20:44;38.70;;;21.50;;
2638;SDS011;1329;51.384;7.122;2023-11-21T11:23:20;40.90;;;22.50;;
2638;SDS011;1329;51.384;7.122;2023-11-21T11:26:07;41.92;;;23.02;;
2638;SDS011;1329;51.384;7.122;2023-11-21T11:28:47;42.63;;;23.25;;
2638;SDS011;1329;51.384;7.122;2023-11-21T11:31:25;43.13;;;24.02;;
2638;SDS011;1329;51.384;7.122;2023-11-21T11:34:07;48.03;;;24.65;;
2638;SDS011;1329;51.384;7.122;2023-11-21T11:36:47;43.22;;;23.48;;
2638;SDS011;1329;51.384;7.122;2023-11-21T11:39:29;42.73;;;22.57;;
2638;SDS011;1329;51.384;7.122;2023-11-21T11:41:58;44.38;;;24.70;;
2638;SDS011;1329;51.384;7.122;2023-11-21T11:44:49;42.58;;;23.27;;
2638;SDS011;1329;51.384;7.122;2023-11-21T11:47:24;41.92;;;22.48;;
2638;SDS011;1329;51.384;7.122;2023-11-21T11:50:07;44.80;;;23.00;;
2638;SDS011;1329;51.384;7.122;2023-11-21T11:52:39;39.03;;;23.30;;
2638;SDS011;1329;51.384;7.122;2023-11-21T11:55:10;44.00;;;23.65;;
2638;SDS011;1329;51.384;7.122;2023-11-21T11:57:38;46.15;;;23.33;;
2638;SDS011;1329;51.384;7.122;2023-11-21T12:00:11;47.83;;;23.38;;
2638;SDS011;1329;51.384;7.122;2023-11-21T12:02:46;42.08;;;23.33;;
2638;SDS011;1329;51.384;7.122;2023-11-21T12:05:15;44.70;;;24.17;;
2638;SDS011;1329;51.384;7.122;2023-11-21T12:07:45;46.83;;;24.88;;
2638;SDS011;1329;51.384;7.122;2023-11-21T12:10:20;46.60;;;24.15;;
2638;SDS011;1329;51.384;7.122;2023-11-21T12:12:50;49.10;;;24.80;;
2638;SDS011;1329;51.384;7.122;2023-11-21T12:15:19;40.22;;;22.42;;
2638;SDS011;1329;51.384;7.122;2023-11-21T12:17:48;46.92;;;22.35;;
2638;SDS011;1329;51.384;7.122;2023-11-21T12:20:18;44.10;;;23.50;;
2638;SDS011;1329;51.384;7.122;2023-11-21T12:22:50;41.38;;;22.80;;
2638;SDS011;1329;51.384;7.122;2023-11-21T12:25:22;40.65;;;22.50;;
2638;SDS011;1329;51.384;7.122;2023-11-21T12:27:54;41.92;;;22.73;;
2638;SDS011;1329;51.384;7.122;2023-11-21T12:30:23;43.90;;;23.52;;
2638;SDS011;1329;51.384;7.122;2023-11-21T12:32:53;43.95;;;22.98;;
2638;SDS011;1329;51.384;7.122;2023-11-21T12:35:24;45.80;;;23.70;;
2638;SDS011;1329;51.384;7.122;2023-11-21T12:37:53;49.70;;;23.17;;
2638;SDS011;1329;51.384;7.122;2023-11-21T12:40:24;42.63;;;23.70;;
2638;SDS011;1329;51.384;7.122;2023-11-21T12:42:53;42.70;;;25.23;;
2638;SDS011;1329;51.384;7.122;2023-11-21T12:45:22;45.00;;;25.40;;
2638;SDS011;1329;51.384;7.122;2023-11-21T12:47:54;44.55;;;25.20;;
2638;SDS011;1329;51.384;7.122;2023-11-21T12:50:25;43.55;;;26.70;;
2638;SDS011;1329;51.384;7.122;2023-11-21T12:52:58;42.75;;;27.23;;
2638;SDS011;1329;51.384;7.122;2023-11-21T12:55:30;44.53;;;28.55;;
2638;SDS011;1329;51.384;7.122;2023-11-21T12:58:02;43.37;;;27.93;;
2638;SDS011;1329;51.384;7.122;2023-11-21T13:00:34;41.27;;;28.90;;
2638;SDS011;1329;51.384;7.122;2023-11-21T13:03:04;45.90;;;30.30;;
2638;SDS011;1329;51.384;7.122;2023-11-21T13:05:33;45.80;;;31.77;;
2638;SDS011;1329;51.384;7.122;2023-11-21T13:08:03;49.80;;;31.47;;
2638;SDS011;1329;51.384;7.122;2023-11-21T13:10:38;44.60;;;29.03;;
2638;SDS011;1329;51.384;7.122;2023-11-21T13:13:09;38.37;;;27.27;;
2638;SDS011;1329;51.384;7.122;2023-11-21T13:15:47;33.33;;;24.23;;
2638;SDS011;1329;51.384;7.122;2023-11-21T13:18:15;35.47;;;25.07;;
2638;SDS011;1329;51.384;7.122;2023-11-21T13:20:43;31.27;;;23.27;;
2638;SDS011;1329;51.384;7.122;2023-11-21T13:23:12;30.77;;;23.23;;
2638;SDS011;1329;51.384;7.122;2023-11-21T13:25:43;28.53;;;21.57;;
2638;SDS011;1329;51.384;7.122;2023-11-21T13:28:12;25.33;;;20.53;;
2638;SDS011;1329;51.384;7.122;2023-11-21T13:30:41;27.97;;;20.43;;
2638;SDS011;1329;51.384;7.122;2023-11-21T13:33:09;27.07;;;20.17;;
2638;SDS011;1329;51.384;7.122;2023-11-21T13:35:43;26.67;;;20.03;;
2638;SDS011;1329;51.384;7.122;2023-11-21T13:38:15;25.53;;;20.17;;
2638;SDS011;1329;51.384;7.122;2023-11-21T13:40:50;24.57;;;19.30;;
2638;SDS011;1329;51.384;7.122;2023-11-21T13:43:20;23.67;;;18.30;;
2638;SDS011;1329;51.384;7.122;2023-11-21T13:45:51;20.80;;;17.30;;
2638;SDS011;1329;51.384;7.122;2023-11-21T13:48:28;21.27;;;17.60;;
2638;SDS011;1329;51.384;7.122;2023-11-21T13:51:03;20.33;;;16.40;;
2638;SDS011;1329;51.384;7.122;2023-11-21T13:53:38;19.70;;;15.60;;
2638;SDS011;1329;51.384;7.122;2023-11-21T13:56:09;26.15;;;20.92;;
2638;SDS011;1329;51.384;7.122;2023-11-21T13:58:38;23.43;;;17.40;;
2638;SDS011;1329;51.384;7.122;2023-11-21T14:01:11;17.97;;;14.90;;
2638;SDS011;1329;51.384;7.122;2023-11-21T14:03:57;17.23;;;14.87;;
2638;SDS011;1329;51.384;7.122;2023-11-21T14:06:33;17.27;;;13.87;;
2638;SDS011;1329;51.384;7.122;2023-11-21T14:09:13;16.17;;;12.57;;
2638;SDS011;1329;51.384;7.122;2023-11-21T14:11:50;15.87;;;13.03;;
2638;SDS011;1329;51.384;7.122;2023-11-21T14:14:21;16.73;;;13.30;;
2638;SDS011;1329;51.384;7.122;2023-11-21T14:16:50;17.63;;;13.63;;
2638;SDS011;1329;51.384;7.122;2023-11-21T14:19:23;17.13;;;13.17;;
2638;SDS011;1329;51.384;7.122;2023-11-21T14:21:55;15.77;;;12.33;;
2638;SDS011;1329;51.384;7.122;2023-11-21T14:24:23;16.33;;;13.07;;
2638;SDS011;1329;51.384;7.122;2023-11-21T14:26:52;16.20;;;13.13;;
2638;SDS011;1329;51.384;7.122;2023-11-21T14:29:20;18.33;;;13.93;;
2638;SDS011;1329;51.384;7.122;2023-11-21T14:31:48;18.30;;;13.67;;
2638;SDS011;1329;51.384;7.122;2023-11-21T14:34:21;16.87;;;13.03;;
2638;SDS011;1329;51.384;7.122;2023-11-21T14:36:49;18.33;;;13.73;;
2638;SDS011;1329;51.384;7.122;2023-11-21T14:39:17;17.73;;;13.37;;
2638;SDS011;1329;51.384;7.122;2023-11-21T14:41:48;16.93;;;12.73;;
2638;SDS011;1329;51.384;7.122;2023-11-21T14:44:19;16.03;;;12.43;;
2638;SDS011;1329;51.384;7.122;2023-11-21T14:46:51;17.70;;;13.00;;
2638;SDS011;1329;51.384;7.122;2023-11-21T14:49:20;19.10;;;12.97;;
2638;SDS011;1329;51.384;7.122;2023-11-21T14:51:50;16.37;;;12.50;;
2638;SDS011;1329;51.384;7.122;2023-11-21T14:54:25;19.33;;;13.67;;
2638;SDS011;1329;51.384;7.122;2023-11-21T14:57:05;17.53;;;12.77;;
2638;SDS011;1329;51.384;7.122;2023-11-21T14:59:42;16.43;;;12.27;;
2638;SDS011;1329;51.384;7.122;2023-11-21T15:02:13;18.67;;;13.00;;
2638;SDS011;1329;51.384;7.122;2023-11-21T15:04:41;14.60;;;11.20;;
2638;SDS011;1329;51.384;7.122;2023-11-21T15:07:09;15.33;;;11.40;;